Adco, Washington
Current Conditions -  °F | °C
As of 1:53 AM on Sunday 21 Dec 2014 (Local Time) from KEPH Reporting Station
Clear Clear  
Wind Chill: 36°   Ceiling: Unl
Heat Index: 43°   Visibility: 10mi
Dew Point: 41°   Wind: 14mph
Humidity: 93%   Direction: 230°SW
Pressure: 29.48"   Gusts: NA
Location:  47.4314°N, 119.485°W
Report Text: KEPH 210953Z AUTO 23012KT 10SM CLR 06/05 A2948 RMK AO2 SLP990 T00610050
Loading
Personal Weather Stations






























Interactive Weather Map New forecast layout! Learn more

10-Day Weather Forecast

Advertisements
Track Severe Weather on mobile